createdAt,value
2018-09-15T00:02:21.024Z,15.70
2018-09-15T00:04:49.784Z,15.70
2018-09-15T00:07:18.528Z,15.50
2018-09-15T00:09:47.319Z,15.60
2018-09-15T00:12:16.457Z,15.50
2018-09-15T00:14:45.299Z,15.60
2018-09-15T00:17:14.148Z,15.60
2018-09-15T00:19:43.340Z,15.60
2018-09-15T00:22:12.150Z,15.70
2018-09-15T00:24:40.944Z,15.60
2018-09-15T00:27:09.719Z,15.80
2018-09-15T00:29:38.529Z,15.80
2018-09-15T00:32:07.447Z,15.90
2018-09-15T00:34:36.251Z,16.00
2018-09-15T00:37:05.057Z,16.10
2018-09-15T00:39:33.875Z,16.10
2018-09-15T00:42:02.741Z,16.00
2018-09-15T00:44:31.476Z,16.10
2018-09-15T00:47:00.236Z,16.00
2018-09-15T00:49:29.070Z,15.90
2018-09-15T00:51:57.956Z,16.00
2018-09-15T00:54:26.780Z,16.20
2018-09-15T00:56:55.552Z,16.20
2018-09-15T00:59:24.379Z,16.10
2018-09-15T01:01:53.170Z,16.20
2018-09-15T01:04:21.969Z,16.20
2018-09-15T01:06:50.749Z,16.20
2018-09-15T01:09:19.517Z,16.20
2018-09-15T01:11:48.383Z,16.20
2018-09-15T01:14:17.336Z,16.20
2018-09-15T01:16:46.101Z,16.10
2018-09-15T01:19:15.248Z,16.20
2018-09-15T01:21:44.022Z,16.20
2018-09-15T01:24:12.790Z,16.30
2018-09-15T01:26:41.551Z,16.30
2018-09-15T01:29:10.306Z,16.30
2018-09-15T01:31:39.092Z,16.30
2018-09-15T01:34:07.866Z,16.30
2018-09-15T01:36:36.657Z,16.20
2018-09-15T01:39:08.144Z,16.30
2018-09-15T01:41:37.198Z,16.30
2018-09-15T01:44:06.009Z,16.20
2018-09-15T01:46:34.791Z,16.20
2018-09-15T01:49:03.660Z,16.10
2018-09-15T01:51:32.475Z,15.90
2018-09-15T01:54:01.249Z,15.90
2018-09-15T01:56:29.997Z,15.90
2018-09-15T01:58:58.800Z,15.90
2018-09-15T02:01:27.554Z,15.80
2018-09-15T02:03:56.309Z,15.90
2018-09-15T02:06:25.134Z,16.00
2018-09-15T02:08:53.931Z,16.00
2018-09-15T02:11:22.701Z,15.90
2018-09-15T02:13:51.508Z,16.00
2018-09-15T02:16:20.325Z,16.00
2018-09-15T02:18:49.093Z,16.10
2018-09-15T02:21:17.871Z,16.10
2018-09-15T02:23:46.646Z,16.00
2018-09-15T02:26:15.451Z,16.00
2018-09-15T02:28:44.229Z,16.00
2018-09-15T02:31:13.033Z,15.90
2018-09-15T02:33:41.813Z,15.90
2018-09-15T02:36:10.700Z,15.90
2018-09-15T02:38:39.530Z,15.80
2018-09-15T02:41:08.318Z,15.70
2018-09-15T02:43:37.198Z,15.70
2018-09-15T02:46:06.112Z,15.60
2018-09-15T02:48:34.984Z,15.60
2018-09-15T02:51:03.764Z,15.60
2018-09-15T02:53:32.556Z,15.50
2018-09-15T02:56:01.359Z,15.40
2018-09-15T02:58:30.171Z,15.40
2018-09-15T03:00:58.945Z,15.50
2018-09-15T03:03:27.803Z,15.50
2018-09-15T03:05:56.732Z,15.60
2018-09-15T03:08:25.555Z,15.70
2018-09-15T03:10:54.352Z,15.90
2018-09-15T03:13:23.172Z,15.90
2018-09-15T03:15:52.030Z,16.00
2018-09-15T03:18:20.835Z,16.00
2018-09-15T03:20:49.610Z,16.10
2018-09-15T03:23:18.427Z,16.10
2018-09-15T03:25:47.333Z,16.20
2018-09-15T03:28:16.102Z,16.20
2018-09-15T03:30:45.041Z,16.30
2018-09-15T03:33:13.775Z,16.30
2018-09-15T03:35:42.536Z,16.30
2018-09-15T03:38:11.355Z,16.40
2018-09-15T03:40:40.142Z,16.40
2018-09-15T03:43:08.916Z,16.30
2018-09-15T03:45:37.677Z,16.20
2018-09-15T03:48:06.461Z,16.10
2018-09-15T03:50:35.236Z,16.00
2018-09-15T03:53:04.395Z,16.10
2018-09-15T03:55:33.307Z,15.90
2018-09-15T03:58:02.060Z,15.80
2018-09-15T04:00:30.860Z,15.80
2018-09-15T04:02:59.648Z,15.70
2018-09-15T04:05:28.748Z,15.70
2018-09-15T04:07:57.520Z,15.60
2018-09-15T04:10:26.294Z,15.70
2018-09-15T04:12:55.120Z,15.70
2018-09-15T04:15:30.185Z,15.60
2018-09-15T04:17:58.962Z,15.60
2018-09-15T04:20:27.859Z,15.60
2018-09-15T04:22:56.652Z,15.40
2018-09-15T04:25:25.421Z,15.30
2018-09-15T04:27:54.233Z,15.20
2018-09-15T04:30:22.965Z,15.30
2018-09-15T04:32:51.759Z,15.40
2018-09-15T04:35:20.507Z,15.50
2018-09-15T04:37:49.294Z,15.50
2018-09-15T04:40:18.063Z,15.50
2018-09-15T04:42:46.847Z,15.50
2018-09-15T04:45:15.631Z,15.40
2018-09-15T04:47:44.417Z,15.40
2018-09-15T04:50:13.152Z,15.50
2018-09-15T04:52:42.047Z,15.40
2018-09-15T04:55:10.792Z,15.40
2018-09-15T04:57:39.590Z,15.30
2018-09-15T05:00:08.499Z,15.30
2018-09-15T05:02:37.284Z,15.30
2018-09-15T05:05:06.080Z,15.30
2018-09-15T05:07:34.855Z,15.20
2018-09-15T05:10:03.682Z,15.30
2018-09-15T05:12:32.627Z,15.30
2018-09-15T05:15:01.537Z,15.20
2018-09-15T05:17:30.287Z,15.20
2018-09-15T05:19:59.147Z,15.30
2018-09-15T05:22:27.925Z,15.40
2018-09-15T05:24:56.782Z,15.40
2018-09-15T05:27:25.569Z,15.40
2018-09-15T05:29:54.336Z,15.50
2018-09-15T05:32:23.122Z,15.70
2018-09-15T05:34:51.964Z,15.90
2018-09-15T05:37:20.760Z,16.00
2018-09-15T05:39:49.529Z,16.10
2018-09-15T05:42:18.303Z,16.10
2018-09-15T05:44:47.081Z,16.00
2018-09-15T05:47:15.875Z,16.00
2018-09-15T05:49:44.705Z,16.10
2018-09-15T05:52:13.559Z,16.10
2018-09-15T05:54:42.338Z,16.10
2018-09-15T05:57:11.112Z,16.10
2018-09-15T05:59:39.916Z,16.00
2018-09-15T06:02:08.805Z,16.00
2018-09-15T06:04:37.710Z,15.90
2018-09-15T06:07:06.539Z,16.00
2018-09-15T06:09:35.331Z,15.70
2018-09-15T06:12:04.113Z,15.70
2018-09-15T06:14:32.940Z,15.90
2018-09-15T06:17:01.879Z,16.00
2018-09-15T06:19:32.251Z,16.10
2018-09-15T06:22:02.573Z,16.00
2018-09-15T06:24:32.160Z,16.10
2018-09-15T06:27:01.477Z,16.10
2018-09-15T06:29:30.746Z,16.00
2018-09-15T06:32:00.522Z,16.10
2018-09-15T06:34:29.389Z,16.10
2018-09-15T06:36:58.195Z,15.80
2018-09-15T06:39:27.123Z,15.90
2018-09-15T06:41:57.291Z,16.20
2018-09-15T06:44:31.727Z,16.60
2018-09-15T06:47:03.093Z,16.80
2018-09-15T06:49:31.904Z,16.70
2018-09-15T06:52:00.923Z,16.80
2018-09-15T06:54:29.757Z,16.70
2018-09-15T06:56:58.786Z,16.80
2018-09-15T06:59:29.022Z,17.00
2018-09-15T07:01:58.375Z,17.10
2018-09-15T07:04:27.477Z,17.00
2018-09-15T07:06:56.332Z,17.30
2018-09-15T07:09:25.118Z,17.20
2018-09-15T07:11:55.793Z,17.00
2018-09-15T07:14:24.594Z,17.30
2018-09-15T07:17:26.846Z,17.60
2018-09-15T07:20:00.091Z,17.80
2018-09-15T07:22:35.603Z,17.70
2018-09-15T07:25:04.824Z,17.50
2018-09-15T07:27:33.724Z,17.40
2018-09-15T07:30:02.833Z,17.60
2018-09-15T07:32:33.900Z,17.70
2018-09-15T07:35:02.847Z,17.50
2018-09-15T07:37:31.888Z,17.60
2018-09-15T07:40:00.899Z,17.60
2018-09-15T07:42:29.667Z,17.40
2018-09-15T07:44:58.460Z,17.50
2018-09-15T07:47:27.205Z,17.50
2018-09-15T07:49:56.032Z,17.60
2018-09-15T07:52:25.434Z,17.50
2018-09-15T07:54:54.241Z,17.70
2018-09-15T07:57:23.105Z,17.50
2018-09-15T07:59:51.880Z,17.70
2018-09-15T08:02:21.855Z,17.90
2018-09-15T08:04:51.290Z,17.80
2018-09-15T08:07:23.111Z,18.00
2018-09-15T08:09:51.902Z,18.20
2018-09-15T08:12:20.729Z,18.40
2018-09-15T08:14:49.571Z,18.60
2018-09-15T08:17:18.338Z,18.70
2018-09-15T08:19:47.146Z,18.90
2018-09-15T08:22:16.032Z,19.30
2018-09-15T08:24:44.841Z,19.50
2018-09-15T08:27:13.658Z,19.90
2018-09-15T08:29:42.784Z,20.40
2018-09-15T08:32:11.609Z,21.00
2018-09-15T08:34:40.379Z,21.50
2018-09-15T08:37:09.216Z,21.70
2018-09-15T08:39:38.023Z,22.00
2018-09-15T08:42:06.896Z,22.40
2018-09-15T08:44:35.713Z,23.00
2018-09-15T08:47:04.483Z,22.60
2018-09-15T08:49:33.269Z,22.50
2018-09-15T08:52:02.112Z,22.70
2018-09-15T08:54:30.920Z,22.40
2018-09-15T08:57:00.010Z,22.20
2018-09-15T08:59:28.830Z,22.20
2018-09-15T09:01:57.709Z,22.30
2018-09-15T09:04:26.491Z,22.70
2018-09-15T09:06:55.258Z,22.90
2018-09-15T09:09:24.077Z,23.20
2018-09-15T09:11:52.847Z,23.20
2018-09-15T09:14:21.907Z,22.80
2018-09-15T09:16:50.672Z,22.80
2018-09-15T09:19:19.407Z,22.70
2018-09-15T09:21:48.361Z,22.30
2018-09-15T09:24:17.128Z,22.30
2018-09-15T09:26:45.926Z,22.10
2018-09-15T09:29:14.722Z,22.00
2018-09-15T09:31:43.513Z,21.60
2018-09-15T09:34:12.328Z,21.50
2018-09-15T09:36:41.330Z,21.50
2018-09-15T09:39:12.118Z,21.40
2018-09-15T09:41:41.075Z,21.30
2018-09-15T09:44:09.881Z,21.20
2018-09-15T09:46:38.672Z,21.20
2018-09-15T09:49:07.575Z,21.40
2018-09-15T09:51:36.378Z,21.50
2018-09-15T09:54:05.216Z,21.90
2018-09-15T09:56:34.018Z,22.20
2018-09-15T09:59:02.792Z,22.90
2018-09-15T10:01:36.885Z,23.40
2018-09-15T10:04:05.688Z,23.80
2018-09-15T10:06:34.483Z,24.00
2018-09-15T10:09:05.350Z,23.90
2018-09-15T10:11:34.149Z,23.90
2018-09-15T10:14:02.906Z,23.80
2018-09-15T10:16:32.074Z,23.40
2018-09-15T10:19:00.919Z,23.20
2018-09-15T10:21:29.774Z,23.10
2018-09-15T10:23:58.596Z,23.30
2018-09-15T10:26:27.439Z,23.70
2018-09-15T10:28:56.324Z,24.20
2018-09-15T10:31:25.208Z,24.90
2018-09-15T10:33:53.978Z,24.90
2018-09-15T10:36:22.839Z,24.60
2018-09-15T10:38:51.633Z,24.10
2018-09-15T10:41:20.710Z,23.70
2018-09-15T10:43:51.185Z,23.20
2018-09-15T10:46:20.022Z,22.80
2018-09-15T10:48:48.826Z,22.30
2018-09-15T10:51:17.612Z,22.00
2018-09-15T10:53:47.649Z,22.00
2018-09-15T10:56:17.890Z,22.20
2018-09-15T10:58:46.960Z,22.50
2018-09-15T11:01:17.733Z,22.50
2018-09-15T11:03:46.661Z,22.70
2018-09-15T11:06:15.476Z,22.50
2018-09-15T11:08:44.373Z,22.90
2018-09-15T11:11:13.193Z,23.30
2018-09-15T11:13:42.067Z,23.60
2018-09-15T11:16:11.079Z,23.80
2018-09-15T11:18:39.866Z,24.10
2018-09-15T11:21:08.703Z,24.30
2018-09-15T11:23:37.503Z,24.60
2018-09-15T11:26:06.381Z,24.20
2018-09-15T11:28:39.663Z,23.80
2018-09-15T11:31:08.514Z,23.30
2018-09-15T11:33:37.350Z,23.10
2018-09-15T11:36:06.466Z,23.10
2018-09-15T11:38:36.521Z,22.90
2018-09-15T11:41:05.342Z,23.00
2018-09-15T11:43:34.233Z,23.50
2018-09-15T11:46:03.057Z,24.10
2018-09-15T11:48:31.809Z,24.70
2018-09-15T11:51:01.445Z,25.00
2018-09-15T11:53:31.549Z,25.30
2018-09-15T11:56:00.393Z,25.40
2018-09-15T11:58:31.906Z,25.20
2018-09-15T12:01:03.549Z,25.60
2018-09-15T12:03:33.458Z,25.70
2018-09-15T12:06:03.873Z,25.90
2018-09-15T12:08:32.975Z,26.20
2018-09-15T12:11:03.410Z,26.70
2018-09-15T12:13:35.237Z,27.00
2018-09-15T12:16:04.046Z,27.40
2018-09-15T12:18:35.113Z,27.40
2018-09-15T12:21:04.031Z,27.10
2018-09-15T12:23:34.943Z,26.60
2018-09-15T12:26:03.863Z,26.40
2018-09-15T12:28:32.694Z,26.00
2018-09-15T12:31:01.589Z,25.90
2018-09-15T12:33:30.732Z,26.20
2018-09-15T12:35:59.526Z,26.50
2018-09-15T12:38:28.286Z,26.60
2018-09-15T12:40:57.115Z,26.70
2018-09-15T12:43:25.931Z,26.80
2018-09-15T12:45:54.802Z,26.90
2018-09-15T12:48:23.567Z,27.10
2018-09-15T12:50:52.350Z,27.00
2018-09-15T12:53:21.163Z,26.30
2018-09-15T12:55:49.948Z,26.00
2018-09-15T12:58:18.730Z,25.60
2018-09-15T13:00:47.518Z,25.40
2018-09-15T13:03:16.319Z,25.20
2018-09-15T13:05:45.113Z,24.60
2018-09-15T13:08:13.978Z,24.80
2018-09-15T13:10:43.141Z,25.40
2018-09-15T13:13:11.908Z,25.70
2018-09-15T13:15:40.682Z,26.20
2018-09-15T13:18:09.513Z,26.80
2018-09-15T13:20:38.293Z,27.00
2018-09-15T13:23:07.036Z,26.90
2018-09-15T13:25:35.841Z,26.50
2018-09-15T13:28:04.794Z,26.20
2018-09-15T13:30:33.592Z,26.00
2018-09-15T13:33:02.378Z,25.50
2018-09-15T13:35:31.148Z,25.20
2018-09-15T13:38:00.000Z,25.00
2018-09-15T13:40:28.714Z,24.20
2018-09-15T13:42:57.464Z,24.00
2018-09-15T13:45:26.257Z,23.80
2018-09-15T13:47:55.048Z,23.70
2018-09-15T13:50:23.862Z,23.40
2018-09-15T13:52:52.667Z,23.60
2018-09-15T13:55:21.422Z,23.60
2018-09-15T13:57:50.231Z,23.50
2018-09-15T14:00:19.024Z,23.50
2018-09-15T14:02:47.854Z,23.50
2018-09-15T14:05:16.683Z,23.40
2018-09-15T14:07:45.431Z,23.20
2018-09-15T14:10:19.013Z,23.10
2018-09-15T14:12:43.036Z,23.00
2018-09-15T14:15:12.156Z,23.00
2018-09-15T14:17:41.038Z,22.70
2018-09-15T14:20:09.845Z,22.90
2018-09-15T14:22:38.599Z,23.00
2018-09-15T14:25:07.421Z,23.10
2018-09-15T14:27:36.193Z,23.20
2018-09-15T14:30:05.350Z,23.30
2018-09-15T14:32:34.157Z,22.90
2018-09-15T14:35:03.097Z,22.80
2018-09-15T14:37:31.905Z,22.80
2018-09-15T14:40:00.681Z,22.60
2018-09-15T14:42:29.454Z,22.50
2018-09-15T14:44:58.588Z,22.40
2018-09-15T14:47:27.426Z,22.30
2018-09-15T14:49:56.275Z,22.30
2018-09-15T14:52:25.088Z,22.30
2018-09-15T14:54:53.885Z,22.20
2018-09-15T14:57:23.152Z,22.20
2018-09-15T14:59:51.950Z,22.30
2018-09-15T15:02:20.757Z,22.20
2018-09-15T15:04:50.365Z,22.20
2018-09-15T15:07:19.158Z,22.20
2018-09-15T15:09:47.962Z,22.20
2018-09-15T15:12:16.838Z,22.30
2018-09-15T15:14:45.640Z,22.30
2018-09-15T15:17:14.526Z,22.20
2018-09-15T15:19:43.381Z,22.20
2018-09-15T15:22:12.425Z,22.30
2018-09-15T15:24:41.179Z,22.40
2018-09-15T15:27:10.000Z,22.40
2018-09-15T15:29:38.821Z,22.60
2018-09-15T15:32:07.676Z,22.70
2018-09-15T15:34:36.627Z,22.70
2018-09-15T15:37:05.385Z,22.70
2018-09-15T15:39:34.812Z,22.50
2018-09-15T15:42:03.830Z,22.50
2018-09-15T15:44:32.688Z,22.50
2018-09-15T15:47:01.429Z,22.50
2018-09-15T15:49:30.383Z,22.70
2018-09-15T15:51:59.254Z,22.70
2018-09-15T15:54:28.110Z,22.90
2018-09-15T15:56:57.056Z,23.10
2018-09-15T15:59:26.043Z,23.10
2018-09-15T16:01:55.559Z,23.00
2018-09-15T16:04:25.364Z,22.50
2018-09-15T16:06:58.951Z,22.20
2018-09-15T16:09:28.170Z,21.90
2018-09-15T16:11:58.596Z,21.80
2018-09-15T16:14:27.890Z,21.80
2018-09-15T16:16:56.672Z,21.90
2018-09-15T16:19:26.752Z,22.10
2018-09-15T16:21:56.634Z,22.20
2018-09-15T16:24:25.511Z,22.10
2018-09-15T16:26:55.622Z,22.00
2018-09-15T16:29:25.162Z,21.80
2018-09-15T16:31:54.020Z,21.80
2018-09-15T16:34:22.896Z,21.80
2018-09-15T16:36:51.721Z,21.70
2018-09-15T16:39:20.572Z,21.60
2018-09-15T16:41:49.828Z,21.60
2018-09-15T16:44:21.498Z,21.50
2018-09-15T16:46:50.542Z,21.40
2018-09-15T16:49:19.458Z,21.30
2018-09-15T16:51:50.385Z,21.20
2018-09-15T16:54:19.210Z,21.00
2018-09-15T16:56:48.336Z,20.90
2018-09-15T16:59:17.092Z,20.60
2018-09-15T17:01:47.577Z,20.70
2018-09-15T17:04:16.361Z,20.70
2018-09-15T17:06:45.106Z,20.50
2018-09-15T17:09:14.121Z,20.50
2018-09-15T17:11:43.041Z,20.30
2018-09-15T17:14:11.813Z,20.30
2018-09-15T17:16:41.097Z,20.30
2018-09-15T17:19:10.176Z,20.10
2018-09-15T17:21:38.973Z,20.00
2018-09-15T17:24:08.353Z,20.00
2018-09-15T17:26:37.141Z,19.90
2018-09-15T17:29:05.939Z,19.80
2018-09-15T17:31:34.748Z,19.70
2018-09-15T17:34:03.556Z,19.50
2018-09-15T17:36:32.318Z,19.40
2018-09-15T17:39:01.124Z,19.20
2018-09-15T17:41:29.908Z,19.20
2018-09-15T17:43:58.654Z,19.10
2018-09-15T17:46:27.982Z,18.90
2018-09-15T17:48:59.206Z,18.80
2018-09-15T17:51:38.593Z,18.70
2018-09-15T17:54:12.433Z,18.60
2018-09-15T17:56:42.972Z,18.60
2018-09-15T17:59:11.998Z,18.60
2018-09-15T18:01:50.169Z,18.50
2018-09-15T18:04:22.485Z,18.40
2018-09-15T18:06:52.623Z,18.30
2018-09-15T18:09:22.421Z,18.10
2018-09-15T18:11:52.242Z,18.10
2018-09-15T18:14:24.305Z,18.10
2018-09-15T18:16:53.740Z,18.10
2018-09-15T18:19:23.066Z,18.10
2018-09-15T18:21:51.872Z,18.00
2018-09-15T18:24:26.667Z,18.00
2018-09-15T18:26:55.536Z,18.00
2018-09-15T18:29:24.680Z,17.90
2018-09-15T18:31:53.441Z,17.90
2018-09-15T18:34:22.167Z,17.80
2018-09-15T18:36:51.196Z,17.80
2018-09-15T18:39:19.793Z,17.60
2018-09-15T18:41:48.626Z,17.60
2018-09-15T18:44:17.444Z,17.50
2018-09-15T18:46:46.301Z,17.40
2018-09-15T18:49:15.097Z,17.30
2018-09-15T18:51:43.883Z,17.20
2018-09-15T18:54:12.718Z,17.10
2018-09-15T18:56:41.507Z,16.90
2018-09-15T18:59:10.343Z,16.60
2018-09-15T19:01:40.443Z,16.60
2018-09-15T19:04:10.871Z,16.50
2018-09-15T19:06:40.842Z,16.40
2018-09-15T19:09:11.866Z,16.40
2018-09-15T19:11:41.258Z,16.20
2018-09-15T19:14:12.716Z,16.20
2018-09-15T19:16:41.885Z,16.10
2018-09-15T19:19:10.688Z,16.10
2018-09-15T19:21:41.203Z,16.00
2018-09-15T19:24:11.648Z,16.00
2018-09-15T19:26:42.043Z,15.90
2018-09-15T19:29:10.949Z,15.80
2018-09-15T19:31:40.317Z,15.70
2018-09-15T19:34:10.863Z,15.60
2018-09-15T19:36:39.698Z,15.40
2018-09-15T19:39:12.601Z,15.30
2018-09-15T19:41:41.444Z,15.20
2018-09-15T19:44:10.401Z,15.00
2018-09-15T19:46:40.453Z,14.90
2018-09-15T19:49:10.152Z,14.90
2018-09-15T19:51:39.083Z,14.80
2018-09-15T19:54:09.164Z,14.60
2018-09-15T19:56:39.303Z,14.50
2018-09-15T19:59:08.277Z,14.40
2018-09-15T20:01:37.079Z,14.40
2018-09-15T20:04:06.377Z,14.40
2018-09-15T20:06:35.611Z,14.30
2018-09-15T20:09:06.511Z,14.20
2018-09-15T20:11:35.307Z,14.10
2018-09-15T20:14:04.084Z,14.10
2018-09-15T20:16:31.551Z,13.90
2018-09-15T20:18:59.085Z,13.70
2018-09-15T20:21:26.672Z,13.60
2018-09-15T20:23:55.492Z,13.60
2018-09-15T20:26:24.272Z,13.60
2018-09-15T20:28:53.086Z,13.60
2018-09-15T20:31:21.860Z,13.50
2018-09-15T20:33:50.989Z,13.40
2018-09-15T20:36:19.740Z,13.40
2018-09-15T20:38:52.324Z,13.30
2018-09-15T20:41:22.919Z,13.10
2018-09-15T20:43:52.092Z,13.00
2018-09-15T20:46:26.436Z,13.00
2018-09-15T20:48:55.546Z,13.00
2018-09-15T20:51:26.026Z,13.10
2018-09-15T20:53:56.722Z,12.90
2018-09-15T20:56:26.034Z,12.90
2018-09-15T20:58:57.908Z,12.70
2018-09-15T21:01:26.886Z,12.70
2018-09-15T21:03:55.625Z,12.60
2018-09-15T21:06:24.419Z,12.70
2018-09-15T21:08:53.191Z,12.60
2018-09-15T21:11:22.000Z,12.70
2018-09-15T21:13:53.157Z,12.80
2018-09-15T21:16:23.255Z,12.70
2018-09-15T21:18:53.071Z,12.60
2018-09-15T21:21:22.727Z,12.60
2018-09-15T21:23:51.582Z,12.50
2018-09-15T21:26:20.445Z,12.30
2018-09-15T21:28:52.240Z,12.40
2018-09-15T21:31:21.004Z,12.50
2018-09-15T21:33:49.823Z,12.40
2018-09-15T21:36:18.672Z,12.50
2018-09-15T21:38:47.682Z,12.40
2018-09-15T21:41:16.689Z,12.30
2018-09-15T21:43:45.496Z,12.20
2018-09-15T21:46:14.286Z,12.10
2018-09-15T21:48:43.054Z,12.20
2018-09-15T21:51:11.951Z,12.40
2018-09-15T21:53:40.856Z,12.40
2018-09-15T21:56:09.645Z,12.40
2018-09-15T21:58:38.459Z,12.30
2018-09-15T22:01:09.701Z,12.00
2018-09-15T22:03:43.850Z,12.00
2018-09-15T22:06:12.629Z,12.00
2018-09-15T22:08:41.410Z,12.10
2018-09-15T22:11:10.208Z,12.00
2018-09-15T22:13:38.986Z,12.10
2018-09-15T22:16:07.844Z,12.00
2018-09-15T22:18:36.622Z,11.90
2018-09-15T22:21:05.451Z,11.90
2018-09-15T22:23:34.287Z,12.00
2018-09-15T22:26:03.082Z,12.00
2018-09-15T22:28:32.283Z,11.90
2018-09-15T22:31:01.110Z,12.00
2018-09-15T22:33:33.180Z,12.00
2018-09-15T22:36:04.631Z,12.00
2018-09-15T22:38:36.040Z,12.00
2018-09-15T22:41:07.535Z,12.10
2018-09-15T22:43:38.834Z,12.10
2018-09-15T22:46:10.082Z,12.10
2018-09-15T22:48:41.104Z,12.00
2018-09-15T22:51:12.041Z,12.00
2018-09-15T22:53:40.890Z,12.10
2018-09-15T22:56:10.002Z,12.10
2018-09-15T22:58:38.823Z,12.00
2018-09-15T23:01:09.043Z,11.90
2018-09-15T23:03:37.856Z,12.00
2018-09-15T23:06:06.780Z,11.90
2018-09-15T23:08:35.576Z,11.70
2018-09-15T23:11:04.385Z,11.60
2018-09-15T23:13:33.203Z,11.50
2018-09-15T23:16:02.100Z,11.60
2018-09-15T23:18:30.940Z,11.60
2018-09-15T23:20:59.816Z,11.70
2018-09-15T23:23:28.653Z,11.80
2018-09-15T23:25:57.446Z,11.70
2018-09-15T23:28:26.273Z,11.70
2018-09-15T23:30:55.100Z,11.70
2018-09-15T23:33:23.897Z,11.70
2018-09-15T23:35:52.825Z,11.60
2018-09-15T23:38:21.638Z,11.60
2018-09-15T23:40:50.396Z,11.60
2018-09-15T23:43:19.260Z,11.60
2018-09-15T23:45:48.460Z,11.40
2018-09-15T23:48:17.365Z,11.40
2018-09-15T23:50:46.157Z,11.30
2018-09-15T23:53:14.941Z,11.20
2018-09-15T23:55:43.749Z,11.20
2018-09-15T23:58:12.583Z,11.10
